createdAt,value
2022-08-19T00:01:53.487Z,7.83
2022-08-19T00:04:27.647Z,7.90
2022-08-19T00:06:55.180Z,9.40
2022-08-19T00:09:23.481Z,8.50
2022-08-19T00:11:50.930Z,8.17
2022-08-19T00:14:19.010Z,8.80
2022-08-19T00:16:48.225Z,8.70
2022-08-19T00:19:16.474Z,8.23
2022-08-19T00:21:44.345Z,8.90
2022-08-19T00:24:13.732Z,8.73
2022-08-19T00:26:41.923Z,9.37
2022-08-19T00:29:11.658Z,9.50
2022-08-19T00:31:38.584Z,8.97
2022-08-19T00:34:05.524Z,9.00
2022-08-19T00:36:33.941Z,10.23
2022-08-19T00:39:01.116Z,9.10
2022-08-19T00:41:29.031Z,10.37
2022-08-19T00:44:20.239Z,10.87
2022-08-19T00:46:55.289Z,13.23
2022-08-19T00:49:52.391Z,10.83
2022-08-19T00:52:29.789Z,10.83
2022-08-19T00:54:58.032Z,10.80
2022-08-19T00:57:36.053Z,10.47
2022-08-19T01:00:10.700Z,10.83
2022-08-19T01:02:37.854Z,13.33
2022-08-19T01:05:10.244Z,14.23
2022-08-19T01:07:39.760Z,12.33
2022-08-19T01:10:09.884Z,16.13
2022-08-19T01:12:37.729Z,16.70
2022-08-19T01:15:10.743Z,16.17
2022-08-19T01:17:40.500Z,13.53
2022-08-19T01:20:11.019Z,12.33
2022-08-19T01:22:46.889Z,15.27
2022-08-19T01:25:16.716Z,15.33
2022-08-19T01:27:48.541Z,15.10
2022-08-19T01:30:22.619Z,18.50
2022-08-19T01:32:50.919Z,15.17
2022-08-19T01:35:18.917Z,17.00
2022-08-19T01:37:48.762Z,16.20
2022-08-19T01:40:16.923Z,13.17
2022-08-19T01:42:43.887Z,14.10
2022-08-19T01:45:11.300Z,13.40
2022-08-19T01:47:39.289Z,12.97
2022-08-19T01:50:08.950Z,12.80
2022-08-19T01:52:37.848Z,13.20
2022-08-19T01:55:08.199Z,12.43
2022-08-19T01:57:36.363Z,13.00
2022-08-19T02:00:06.947Z,13.50
2022-08-19T02:02:38.920Z,14.33
2022-08-19T02:05:08.041Z,14.67
2022-08-19T02:07:39.162Z,13.27
2022-08-19T02:10:12.588Z,12.57
2022-08-19T02:12:40.629Z,11.60
2022-08-19T02:15:08.572Z,13.73
2022-08-19T02:17:35.615Z,16.37
2022-08-19T02:20:02.787Z,13.93
2022-08-19T02:22:29.661Z,14.03
2022-08-19T02:24:56.745Z,16.43
2022-08-19T02:27:24.035Z,15.33
2022-08-19T02:29:52.334Z,16.73
2022-08-19T02:32:20.843Z,17.90
2022-08-19T02:34:48.541Z,16.37
2022-08-19T02:37:35.130Z,15.57
2022-08-19T02:40:02.516Z,13.20
2022-08-19T02:42:30.664Z,12.70
2022-08-19T02:44:57.590Z,13.27
2022-08-19T02:47:24.968Z,16.67
2022-08-19T02:49:51.777Z,15.43
2022-08-19T02:52:18.783Z,13.63
2022-08-19T02:54:45.637Z,13.83
2022-08-19T02:57:12.465Z,13.53
2022-08-19T02:59:39.303Z,13.60
2022-08-19T03:02:06.278Z,12.93
2022-08-19T03:04:33.084Z,12.83
2022-08-19T03:07:10.805Z,13.83
2022-08-19T03:09:38.906Z,11.03
2022-08-19T03:12:07.209Z,13.90
2022-08-19T03:14:35.202Z,16.53
2022-08-19T03:17:02.436Z,14.57
2022-08-19T03:19:29.444Z,13.77
2022-08-19T03:21:56.575Z,13.20
2022-08-19T03:24:23.395Z,12.30
2022-08-19T03:26:53.321Z,12.87
2022-08-19T03:29:28.373Z,12.27
2022-08-19T03:32:15.653Z,14.97
2022-08-19T03:34:58.364Z,12.67
2022-08-19T03:37:25.297Z,13.57
2022-08-19T03:39:52.962Z,13.83
2022-08-19T03:42:38.873Z,14.23
2022-08-19T03:45:08.372Z,13.87
2022-08-19T03:47:35.383Z,13.07
2022-08-19T03:50:03.062Z,16.90
2022-08-19T03:52:30.140Z,11.93
2022-08-19T03:54:57.035Z,13.27
2022-08-19T03:57:25.169Z,11.83
2022-08-19T04:00:12.647Z,12.27
2022-08-19T04:02:42.858Z,10.67
2022-08-19T04:05:27.770Z,10.77
2022-08-19T04:07:56.032Z,11.43
2022-08-19T04:10:23.401Z,11.23
2022-08-19T04:12:50.249Z,13.77
2022-08-19T04:15:18.014Z,12.97
2022-08-19T04:17:44.824Z,13.70
2022-08-19T04:20:11.718Z,14.73
2022-08-19T04:22:38.634Z,12.73
2022-08-19T04:25:05.773Z,15.57
2022-08-19T04:27:34.313Z,14.07
2022-08-19T04:30:01.410Z,13.83
2022-08-19T04:32:28.234Z,14.90
2022-08-19T04:35:02.021Z,12.90
2022-08-19T04:37:44.661Z,13.63
2022-08-19T04:40:30.950Z,12.80
2022-08-19T04:42:57.809Z,13.23
2022-08-19T04:45:25.615Z,12.87
2022-08-19T04:47:58.706Z,14.20
2022-08-19T04:50:45.869Z,13.00
2022-08-19T04:53:12.739Z,15.83
2022-08-19T04:55:42.091Z,14.47
2022-08-19T04:58:09.009Z,14.43
2022-08-19T05:00:39.756Z,14.70
2022-08-19T05:03:08.009Z,17.83
2022-08-19T05:05:44.566Z,14.60
2022-08-19T05:08:31.145Z,16.47
2022-08-19T05:10:58.620Z,15.63
2022-08-19T05:13:25.407Z,15.37
2022-08-19T05:15:59.868Z,16.90
2022-08-19T05:18:45.745Z,13.97
2022-08-19T05:21:33.481Z,13.83
2022-08-19T05:24:00.773Z,14.73
2022-08-19T05:26:27.712Z,14.20
2022-08-19T05:28:55.375Z,14.60
2022-08-19T05:31:23.153Z,14.67
2022-08-19T05:33:50.991Z,16.20
2022-08-19T05:36:19.942Z,17.13
2022-08-19T05:38:48.463Z,17.47
2022-08-19T05:41:16.283Z,16.40
2022-08-19T05:43:43.138Z,14.63
2022-08-19T05:46:19.161Z,16.40
2022-08-19T05:48:57.095Z,14.07
2022-08-19T05:51:28.935Z,14.33
2022-08-19T05:53:56.393Z,14.53
2022-08-19T05:56:23.192Z,16.33
2022-08-19T05:58:50.112Z,18.10
2022-08-19T06:01:19.249Z,12.13
2022-08-19T06:03:46.419Z,14.10
2022-08-19T06:06:16.936Z,13.43
2022-08-19T06:08:46.138Z,17.17
2022-08-19T06:11:17.601Z,16.17
2022-08-19T06:13:50.093Z,19.23
2022-08-19T06:16:21.915Z,16.33
2022-08-19T06:18:52.380Z,16.93
2022-08-19T06:21:24.730Z,15.13
2022-08-19T06:23:52.646Z,15.93
2022-08-19T06:26:20.711Z,16.73
2022-08-19T06:28:48.662Z,15.37
2022-08-19T06:31:17.687Z,15.57
2022-08-19T06:33:45.881Z,16.30
2022-08-19T06:36:32.513Z,16.57
2022-08-19T06:39:00.247Z,14.60
2022-08-19T06:41:27.772Z,15.13
2022-08-19T06:43:56.517Z,17.83
2022-08-19T06:46:24.113Z,14.97
2022-08-19T06:48:54.197Z,13.73
2022-08-19T06:51:22.631Z,18.57
2022-08-19T06:56:46.786Z,16.10
2022-08-19T06:59:16.710Z,18.00
2022-08-19T07:01:53.262Z,14.83
2022-08-19T07:04:22.682Z,17.10
2022-08-19T07:06:55.061Z,16.50
2022-08-19T07:09:22.707Z,14.83
2022-08-19T07:11:51.819Z,15.40
2022-08-19T07:14:21.600Z,21.20
2022-08-19T07:16:51.238Z,15.47
2022-08-19T07:19:19.421Z,15.40
2022-08-19T07:21:48.145Z,17.47
2022-08-19T07:24:16.184Z,18.60
2022-08-19T07:26:44.634Z,19.87
2022-08-19T07:29:12.561Z,24.20
2022-08-19T07:31:40.695Z,16.53
2022-08-19T07:34:12.693Z,18.67
2022-08-19T07:36:43.019Z,18.20
2022-08-19T07:39:14.233Z,13.80
2022-08-19T07:41:41.130Z,18.43
2022-08-19T07:44:09.680Z,20.97
2022-08-19T07:46:38.658Z,18.93
2022-08-19T07:49:06.973Z,17.93
2022-08-19T07:51:37.194Z,16.57
2022-08-19T07:54:04.493Z,15.30
2022-08-19T07:56:32.549Z,19.87
2022-08-19T07:59:00.886Z,16.80
2022-08-19T08:01:28.771Z,16.47
2022-08-19T08:04:16.670Z,15.97
2022-08-19T08:07:02.771Z,16.83
2022-08-19T08:09:39.381Z,18.20
2022-08-19T08:12:32.873Z,18.70
2022-08-19T08:15:03.168Z,18.37
2022-08-19T08:17:48.710Z,18.67
2022-08-19T08:20:17.548Z,18.43
2022-08-19T08:23:05.293Z,17.47
2022-08-19T08:25:32.696Z,18.37
2022-08-19T08:28:01.792Z,18.00
2022-08-19T08:30:32.902Z,16.43
2022-08-19T08:33:00.480Z,18.27
2022-08-19T08:35:30.430Z,16.20
2022-08-19T08:37:57.670Z,18.13
2022-08-19T08:40:30.463Z,15.67
2022-08-19T08:43:06.811Z,15.00
2022-08-19T08:46:04.978Z,20.33
2022-08-19T08:48:38.251Z,18.17
2022-08-19T08:51:11.343Z,16.67
2022-08-19T08:53:41.959Z,19.03
2022-08-19T08:56:13.968Z,16.90
2022-08-19T08:58:57.520Z,19.77
2022-08-19T09:01:24.875Z,19.57
2022-08-19T09:03:57.679Z,15.40
2022-08-19T09:06:38.187Z,15.47
2022-08-19T09:09:18.510Z,15.30
2022-08-19T09:11:49.991Z,14.60
2022-08-19T09:14:49.852Z,15.37
2022-08-19T09:17:18.881Z,16.93
2022-08-19T09:20:22.920Z,17.30
2022-08-19T09:22:50.512Z,16.20
2022-08-19T09:25:26.828Z,13.93
2022-08-19T09:28:02.308Z,16.90
2022-08-19T09:30:33.084Z,19.17
2022-08-19T09:33:00.292Z,18.53
2022-08-19T09:35:30.162Z,13.43
2022-08-19T09:38:00.098Z,19.87
2022-08-19T09:40:30.011Z,15.80
2022-08-19T09:43:01.048Z,14.53
2022-08-19T09:45:28.240Z,17.63
2022-08-19T09:47:55.528Z,16.90
2022-08-19T09:50:24.963Z,15.27
2022-08-19T09:52:55.640Z,15.10
2022-08-19T09:55:32.006Z,19.07
2022-08-19T09:58:03.744Z,15.77
2022-08-19T10:00:31.901Z,14.80
2022-08-19T10:02:58.994Z,14.90
2022-08-19T10:05:44.487Z,16.73
2022-08-19T10:08:13.465Z,13.53
2022-08-19T10:10:46.276Z,15.80
2022-08-19T10:13:18.248Z,13.67
2022-08-19T10:15:48.202Z,14.17
2022-08-19T10:18:19.545Z,15.63
2022-08-19T10:20:52.694Z,16.27
2022-08-19T10:23:21.693Z,12.77
2022-08-19T10:25:49.368Z,15.43
2022-08-19T10:28:16.231Z,14.07
2022-08-19T10:30:48.727Z,11.57
2022-08-19T10:33:19.264Z,14.10
2022-08-19T10:36:11.604Z,12.57
2022-08-19T10:38:38.858Z,13.77
2022-08-19T10:41:17.348Z,14.03
2022-08-19T10:43:45.993Z,13.87
2022-08-19T10:46:16.876Z,12.90
2022-08-19T10:48:45.439Z,13.90
2022-08-19T10:51:31.690Z,11.57
2022-08-19T10:54:00.209Z,12.43
2022-08-19T10:56:46.690Z,11.60
2022-08-19T10:59:14.791Z,11.13
2022-08-19T11:01:44.283Z,11.33
2022-08-19T11:04:12.120Z,11.97
2022-08-19T11:06:39.423Z,11.60
2022-08-19T11:09:06.877Z,12.23
2022-08-19T11:11:40.378Z,10.97
2022-08-19T11:14:12.736Z,12.20
2022-08-19T11:16:40.343Z,16.10
2022-08-19T11:19:10.040Z,11.67
2022-08-19T11:21:40.315Z,13.60
2022-08-19T11:24:14.065Z,17.23
2022-08-19T11:26:44.174Z,14.37
2022-08-19T11:29:14.197Z,14.20
2022-08-19T11:31:46.817Z,14.97
2022-08-19T11:34:17.618Z,15.17
2022-08-19T11:36:46.454Z,15.73
2022-08-19T11:39:16.501Z,12.40
2022-08-19T11:41:44.675Z,16.83
2022-08-19T11:44:12.167Z,13.40
2022-08-19T11:46:39.162Z,13.93
2022-08-19T11:49:13.799Z,14.03
2022-08-19T11:51:45.085Z,11.23
2022-08-19T11:54:13.788Z,12.30
2022-08-19T11:56:41.661Z,13.33
2022-08-19T11:59:14.087Z,15.00
2022-08-19T12:01:43.407Z,16.10
2022-08-19T12:04:10.923Z,14.67
2022-08-19T12:06:39.689Z,15.70
2022-08-19T12:09:10.498Z,16.07
2022-08-19T12:11:38.821Z,14.63
2022-08-19T12:14:05.879Z,14.57
2022-08-19T12:16:33.570Z,14.50
2022-08-19T12:19:04.800Z,12.90
2022-08-19T12:21:34.335Z,15.67
2022-08-19T12:24:03.062Z,14.57
2022-08-19T12:26:32.290Z,12.87
2022-08-19T12:29:00.476Z,15.43
2022-08-19T12:31:29.141Z,15.77
2022-08-19T12:33:56.191Z,13.50
2022-08-19T12:36:24.214Z,17.53
2022-08-19T12:38:51.430Z,14.27
2022-08-19T12:41:19.360Z,15.20
2022-08-19T12:43:46.519Z,17.27
2022-08-19T12:46:13.767Z,14.90
2022-08-19T12:48:42.915Z,14.80
2022-08-19T12:51:13.725Z,14.90
2022-08-19T12:53:40.730Z,13.77
2022-08-19T12:56:10.007Z,15.73
2022-08-19T12:58:39.901Z,14.37
2022-08-19T13:01:15.330Z,16.07
2022-08-19T13:03:48.420Z,15.33
2022-08-19T13:06:19.550Z,15.10
2022-08-19T13:08:48.075Z,13.53
2022-08-19T13:11:18.385Z,14.87
2022-08-19T13:13:48.297Z,11.97
2022-08-19T13:16:15.994Z,11.13
2022-08-19T13:18:44.859Z,12.23
2022-08-19T13:21:15.346Z,12.83
2022-08-19T13:23:42.832Z,11.93
2022-08-19T13:26:11.506Z,11.73
2022-08-19T13:29:00.566Z,12.53
2022-08-19T13:31:48.209Z,10.67
2022-08-19T13:34:17.030Z,12.40
2022-08-19T13:36:44.375Z,12.80
2022-08-19T13:39:11.253Z,12.90
2022-08-19T13:41:43.943Z,10.50
2022-08-19T13:44:10.731Z,10.13
2022-08-19T13:46:37.533Z,12.67
2022-08-19T13:49:05.196Z,11.33
2022-08-19T13:51:31.999Z,11.53
2022-08-19T13:53:58.836Z,12.37
2022-08-19T13:56:26.579Z,12.87
2022-08-19T13:58:55.549Z,11.60
2022-08-19T14:01:27.688Z,10.47
2022-08-19T14:03:55.569Z,10.60
2022-08-19T14:06:23.244Z,10.10
2022-08-19T14:08:50.125Z,10.87
2022-08-19T14:11:17.895Z,9.80
2022-08-19T14:13:44.950Z,11.37
2022-08-19T14:16:13.879Z,11.97
2022-08-19T14:18:41.733Z,11.97
2022-08-19T14:21:14.755Z,11.00
2022-08-19T14:23:42.669Z,11.47
2022-08-19T14:26:12.897Z,10.17
2022-08-19T14:28:44.218Z,9.43
2022-08-19T14:31:19.243Z,12.03
2022-08-19T14:33:49.596Z,12.60
2022-08-19T14:36:17.284Z,11.30
2022-08-19T14:38:44.336Z,10.03
2022-08-19T14:41:13.129Z,10.20
2022-08-19T14:43:40.308Z,10.67
2022-08-19T14:46:07.335Z,9.90
2022-08-19T14:48:34.439Z,11.77
2022-08-19T14:51:01.368Z,13.80
2022-08-19T14:53:29.258Z,11.93
2022-08-19T14:55:56.058Z,12.40
2022-08-19T14:58:29.247Z,10.80
2022-08-19T15:00:59.730Z,11.33
2022-08-19T15:03:27.207Z,13.00
2022-08-19T15:05:54.208Z,11.03
2022-08-19T15:08:25.596Z,10.03
2022-08-19T15:10:53.093Z,11.50
2022-08-19T15:13:20.897Z,11.70
2022-08-19T15:15:48.879Z,10.10
2022-08-19T15:18:16.138Z,10.10
2022-08-19T15:20:44.498Z,9.40
2022-08-19T15:23:18.194Z,12.00
2022-08-19T15:25:45.520Z,10.70
2022-08-19T15:28:13.389Z,10.70
2022-08-19T15:30:41.625Z,10.23
2022-08-19T15:33:08.628Z,10.80
2022-08-19T15:35:35.608Z,10.93
2022-08-19T15:38:02.829Z,12.17
2022-08-19T15:40:31.895Z,11.80
2022-08-19T15:42:59.777Z,11.80
2022-08-19T15:45:32.807Z,12.80
2022-08-19T15:48:06.278Z,12.53
2022-08-19T15:50:35.709Z,11.87
2022-08-19T15:53:10.292Z,10.03
2022-08-19T15:55:44.823Z,11.10
2022-08-19T15:58:33.663Z,13.07
2022-08-19T16:01:33.414Z,13.87
2022-08-19T16:04:23.540Z,12.83
2022-08-19T16:06:56.741Z,11.27
2022-08-19T16:09:28.976Z,14.33
2022-08-19T16:12:02.394Z,12.67
2022-08-19T16:14:33.023Z,12.27
2022-08-19T16:17:01.967Z,13.20
2022-08-19T16:19:28.846Z,12.57
2022-08-19T16:21:57.125Z,13.63
2022-08-19T16:24:26.651Z,12.67
2022-08-19T16:26:53.639Z,12.17
2022-08-19T16:29:34.649Z,13.00
2022-08-19T16:32:11.475Z,14.47
2022-08-19T16:34:40.536Z,12.77
2022-08-19T16:37:08.330Z,12.20
2022-08-19T16:39:35.198Z,14.57
2022-08-19T16:42:02.987Z,13.30
2022-08-19T16:44:31.651Z,12.33
2022-08-19T16:47:00.015Z,12.67
2022-08-19T16:49:52.869Z,12.53
2022-08-19T16:52:16.889Z,12.80
2022-08-19T16:54:44.071Z,13.43
2022-08-19T16:57:12.332Z,16.27
2022-08-19T16:59:43.754Z,14.23
2022-08-19T17:02:22.406Z,13.77
2022-08-19T17:04:57.612Z,13.03
2022-08-19T17:07:27.733Z,13.27
2022-08-19T17:09:55.188Z,12.70
2022-08-19T17:12:23.336Z,11.20
2022-08-19T17:14:59.216Z,13.57
2022-08-19T17:17:29.277Z,13.00
2022-08-19T17:19:58.602Z,12.33
2022-08-19T17:22:25.349Z,14.47
2022-08-19T17:24:56.189Z,13.90
2022-08-19T17:27:25.438Z,12.17
2022-08-19T17:29:53.006Z,11.40
2022-08-19T17:32:25.074Z,15.17
2022-08-19T17:34:54.008Z,10.93
2022-08-19T17:37:21.023Z,12.50
2022-08-19T17:39:47.868Z,13.13
2022-08-19T17:42:15.205Z,14.67
2022-08-19T17:44:42.310Z,13.53
2022-08-19T17:47:13.166Z,12.80
2022-08-19T17:49:40.444Z,13.47
2022-08-19T17:52:10.051Z,12.97
2022-08-19T17:54:37.338Z,12.07
2022-08-19T17:57:04.328Z,12.33
2022-08-19T17:59:31.192Z,14.10
2022-08-19T18:02:00.147Z,10.73
2022-08-19T18:04:27.502Z,10.87
2022-08-19T18:06:56.720Z,10.47
2022-08-19T18:09:42.307Z,11.27
2022-08-19T18:12:14.205Z,10.47
2022-08-19T18:14:42.195Z,12.20
2022-08-19T18:17:13.349Z,10.90
2022-08-19T18:19:43.279Z,10.63
2022-08-19T18:22:22.478Z,9.33
2022-08-19T18:24:49.450Z,10.77
2022-08-19T18:27:16.652Z,10.90
2022-08-19T18:29:44.671Z,15.30
2022-08-19T18:32:14.454Z,13.50
2022-08-19T18:34:43.033Z,11.77
2022-08-19T18:37:10.708Z,16.03
2022-08-19T18:39:57.408Z,14.30
2022-08-19T18:42:43.144Z,12.17
2022-08-19T18:45:30.190Z,16.77
2022-08-19T18:48:27.491Z,12.10
2022-08-19T18:50:59.915Z,14.10
2022-08-19T18:53:33.667Z,15.93
2022-08-19T18:56:00.942Z,13.07
2022-08-19T18:58:36.651Z,13.43
2022-08-19T19:01:13.991Z,16.73
2022-08-19T19:03:45.520Z,12.20
2022-08-19T19:06:22.595Z,12.47
2022-08-19T19:08:51.053Z,13.63
2022-08-19T19:11:25.208Z,12.47
2022-08-19T19:13:52.178Z,13.83
2022-08-19T19:16:23.767Z,10.63
2022-08-19T19:18:52.312Z,9.97
2022-08-19T19:21:23.023Z,13.97
2022-08-19T19:23:50.473Z,15.33
2022-08-19T19:26:17.701Z,13.63
2022-08-19T19:28:45.746Z,13.30
2022-08-19T19:31:16.359Z,11.50
2022-08-19T19:33:45.370Z,14.90
2022-08-19T19:36:12.840Z,14.63
2022-08-19T19:38:46.277Z,12.80
2022-08-19T19:41:17.882Z,14.13
2022-08-19T19:43:44.695Z,13.37
2022-08-19T19:46:12.415Z,16.03
2022-08-19T19:48:39.274Z,12.10
2022-08-19T19:51:06.231Z,10.83
2022-08-19T19:53:33.840Z,13.43
2022-08-19T19:56:02.299Z,11.83
2022-08-19T19:58:30.858Z,10.33
2022-08-19T20:00:58.819Z,10.40
2022-08-19T20:03:27.040Z,10.63
2022-08-19T20:05:54.105Z,10.23
2022-08-19T20:08:40.180Z,13.07
2022-08-19T20:11:07.514Z,11.73
2022-08-19T20:13:35.316Z,12.70
2022-08-19T20:16:05.855Z,12.00
2022-08-19T20:18:32.659Z,11.97
2022-08-19T20:21:00.251Z,12.47
2022-08-19T20:23:27.277Z,11.67
2022-08-19T20:25:54.432Z,12.13
2022-08-19T20:28:22.877Z,11.60
2022-08-19T20:30:50.308Z,10.97
2022-08-19T20:33:17.562Z,15.03
2022-08-19T20:35:46.194Z,11.57
2022-08-19T20:38:13.691Z,10.93
2022-08-19T20:40:41.194Z,12.23
2022-08-19T20:43:12.359Z,15.43
2022-08-19T20:45:39.577Z,13.47
2022-08-19T20:48:08.666Z,12.90
2022-08-19T20:50:36.349Z,11.57
2022-08-19T20:53:18.045Z,13.77
2022-08-19T20:55:49.115Z,13.77
2022-08-19T20:58:19.088Z,12.80
2022-08-19T21:00:48.533Z,13.93
2022-08-19T21:03:21.325Z,14.50
2022-08-19T21:05:48.212Z,13.57
2022-08-19T21:08:19.327Z,15.33
2022-08-19T21:10:47.461Z,13.67
2022-08-19T21:13:14.907Z,15.20
2022-08-19T21:15:43.272Z,13.83
2022-08-19T21:18:11.674Z,14.27
2022-08-19T21:20:39.615Z,17.67
2022-08-19T21:23:14.335Z,15.13
2022-08-19T21:25:41.407Z,14.33
2022-08-19T21:28:34.608Z,16.03
2022-08-19T21:31:05.873Z,13.13
2022-08-19T21:33:33.086Z,12.93
2022-08-19T21:36:00.310Z,15.87
2022-08-19T21:38:27.520Z,15.23
2022-08-19T21:40:55.153Z,15.23
2022-08-19T21:43:22.707Z,14.33
2022-08-19T21:45:50.943Z,13.50
2022-08-19T21:48:18.371Z,13.07
2022-08-19T21:50:46.036Z,14.30
2022-08-19T21:53:18.951Z,15.60
2022-08-19T21:55:52.772Z,16.80
2022-08-19T21:58:30.039Z,15.23
2022-08-19T22:00:59.124Z,19.30
2022-08-19T22:03:26.921Z,16.13
2022-08-19T22:05:53.796Z,14.53
2022-08-19T22:08:20.715Z,13.93
2022-08-19T22:10:49.507Z,13.53
2022-08-19T22:13:18.076Z,13.30
2022-08-19T22:15:46.425Z,15.37
2022-08-19T22:18:17.761Z,13.20
2022-08-19T22:20:44.981Z,13.40
2022-08-19T22:23:12.755Z,15.20
2022-08-19T22:25:43.382Z,11.53
2022-08-19T22:28:13.396Z,18.27
2022-08-19T22:30:42.409Z,17.03
2022-08-19T22:33:13.131Z,15.63
2022-08-19T22:35:41.633Z,16.97
2022-08-19T22:38:10.158Z,19.70
2022-08-19T22:40:40.742Z,20.07
2022-08-19T22:43:09.055Z,19.03
2022-08-19T22:45:36.770Z,18.90
2022-08-19T22:48:07.802Z,21.17
2022-08-19T22:50:35.974Z,22.90
2022-08-19T22:53:03.811Z,21.27
2022-08-19T22:55:31.271Z,19.70
2022-08-19T22:57:58.962Z,18.80
2022-08-19T23:00:27.881Z,18.60
2022-08-19T23:02:56.057Z,19.93
2022-08-19T23:05:25.305Z,18.83
2022-08-19T23:07:52.877Z,21.90
2022-08-19T23:10:27.691Z,17.37
2022-08-19T23:12:58.038Z,18.93
2022-08-19T23:15:28.773Z,18.87
2022-08-19T23:17:57.889Z,21.53
2022-08-19T23:20:27.379Z,20.03
2022-08-19T23:22:55.523Z,21.43
2022-08-19T23:25:26.925Z,20.10
2022-08-19T23:28:12.816Z,19.37
2022-08-19T23:30:43.693Z,19.80
2022-08-19T23:33:46.862Z,20.63
2022-08-19T23:36:16.065Z,21.17
2022-08-19T23:38:45.447Z,20.43
2022-08-19T23:41:13.536Z,22.67
2022-08-19T23:43:41.963Z,21.37
2022-08-19T23:46:11.364Z,21.73
2022-08-19T23:48:39.735Z,22.17
2022-08-19T23:51:10.577Z,22.13
2022-08-19T23:53:39.974Z,24.27
2022-08-19T23:56:08.224Z,23.27
2022-08-19T23:58:37.056Z,22.07
